createdAt,value
2019-02-26T18:27:38.161Z,9.60
2019-02-26T18:30:27.199Z,9.50
2019-02-26T18:33:04.704Z,9.30
2019-02-26T18:35:43.751Z,9.20
2019-02-26T18:38:23.774Z,9.10
2019-02-26T18:41:00.692Z,9.00
2019-02-26T18:43:50.326Z,8.90
2019-02-26T18:46:27.419Z,8.80
2019-02-26T18:49:01.305Z,8.70
2019-02-26T18:51:40.522Z,8.60
2019-02-26T18:54:33.903Z,8.40
2019-02-26T18:57:12.110Z,8.30
2019-02-26T18:59:55.237Z,8.20
2019-02-26T19:03:01.612Z,8.10
2019-02-26T19:09:14.254Z,7.90
2019-02-26T19:16:20.483Z,7.70
2019-02-26T19:23:12.828Z,7.70
2019-02-26T19:28:25.846Z,7.40
2019-02-26T19:31:12.594Z,7.20
2019-02-26T19:33:44.009Z,7.20
2019-02-26T19:36:53.508Z,7.20
2019-02-26T19:39:35.953Z,7.10
2019-02-26T19:42:05.987Z,6.90
2019-02-26T19:44:39.993Z,6.80
2019-02-26T19:47:14.367Z,6.70
2019-02-26T19:49:58.724Z,6.60
2019-02-26T19:52:37.000Z,6.60
2019-02-26T19:55:23.980Z,6.50
2019-02-26T19:58:11.565Z,6.50
2019-02-26T20:00:46.275Z,6.50
2019-02-26T20:03:39.986Z,6.40
2019-02-26T20:06:14.838Z,6.30
2019-02-26T20:09:05.804Z,6.20
2019-02-26T20:11:35.770Z,6.10
2019-02-26T20:14:21.491Z,6.00
2019-02-26T20:17:03.412Z,6.00
2019-02-26T20:19:41.779Z,6.00
2019-02-26T20:22:22.699Z,5.90
2019-02-26T20:25:13.131Z,5.80
2019-02-26T20:27:55.149Z,5.80
2019-02-26T20:30:33.885Z,5.70
2019-02-26T20:33:13.609Z,5.70
2019-02-26T20:35:56.988Z,5.60
2019-02-26T20:38:44.595Z,5.50
2019-02-26T20:41:22.779Z,5.40
2019-02-26T20:44:07.822Z,5.30
2019-02-26T20:46:51.539Z,5.30
2019-02-26T20:49:32.762Z,5.30
2019-02-26T20:52:11.078Z,5.30
2019-02-26T20:54:54.148Z,5.10
2019-02-26T20:57:42.045Z,5.00
2019-02-26T21:00:25.016Z,5.10
2019-02-26T21:03:12.224Z,5.10
2019-02-26T21:05:49.214Z,5.00
2019-02-26T21:08:25.238Z,5.00
2019-02-26T21:11:05.807Z,4.90
2019-02-26T21:13:54.339Z,4.90
2019-02-26T21:16:44.421Z,4.70
2019-02-26T21:19:18.833Z,4.70
2019-02-26T21:22:06.899Z,4.60
2019-02-26T21:32:58.691Z,4.60
2019-02-26T21:35:37.950Z,4.40
2019-02-26T21:38:18.910Z,4.30
2019-02-26T21:41:02.976Z,4.20
2019-02-26T21:43:48.530Z,4.20
2019-02-26T21:46:31.215Z,4.20
2019-02-26T21:49:11.370Z,4.10
2019-02-26T21:51:51.870Z,4.10
2019-02-26T21:54:33.128Z,4.00
2019-02-26T21:57:21.515Z,4.10
2019-02-26T22:00:05.169Z,4.00
2019-02-26T22:02:46.732Z,3.90
2019-02-26T22:05:27.842Z,3.80
2019-02-26T22:08:11.282Z,3.70
2019-02-26T22:11:00.817Z,3.70
2019-02-26T22:17:32.615Z,3.60
2019-02-26T22:20:35.945Z,3.50
2019-02-26T22:23:04.365Z,3.70
2019-02-26T22:25:52.628Z,3.80
2019-02-26T22:28:34.085Z,3.80
2019-02-26T22:31:19.063Z,3.70
2019-02-26T22:34:02.053Z,3.60
2019-02-26T22:36:39.452Z,3.50
2019-02-26T22:39:31.752Z,3.30
2019-02-26T22:42:15.578Z,3.30
2019-02-26T22:44:48.076Z,3.10
2019-02-26T22:54:43.479Z,3.00
2019-02-26T22:57:34.603Z,2.90
2019-02-26T23:01:36.176Z,2.80
2019-02-26T23:04:13.685Z,2.80
2019-02-26T23:07:05.156Z,2.80
2019-02-26T23:12:55.615Z,2.70
2019-02-26T23:15:38.785Z,2.60
2019-02-26T23:18:25.296Z,2.60
2019-02-26T23:24:36.774Z,2.60
2019-02-26T23:27:14.912Z,2.50
2019-02-26T23:29:15.809Z,2.60
2019-02-26T23:35:28.767Z,2.40
2019-02-26T23:38:11.099Z,2.30
2019-02-26T23:40:45.763Z,2.30
2019-02-26T23:43:35.611Z,2.20
2019-02-26T23:46:25.071Z,2.20
2019-02-26T23:49:05.337Z,2.20
2019-02-26T23:51:57.389Z,2.10
2019-02-26T23:54:39.801Z,2.00
2019-02-26T23:57:19.362Z,2.10
